sensor_id;sensor_type;location;lat;lon;timestamp;P1;P2;P0
45788;PMS7003;31492;54.856;26.318;2022-12-29T02:24:36;30.8;27.5;18
45788;PMS7003;31492;54.856;26.318;2022-12-29T02:29:37;25.3;22.3;15.8
45788;PMS7003;31492;54.856;26.318;2022-12-29T02:34:31;25;21.5;14.5
45788;PMS7003;31492;54.856;26.318;2022-12-29T02:39:31;22;19.5;13.3
45788;PMS7003;31492;54.856;26.318;2022-12-29T02:44:32;23.2;19.4;14
45788;PMS7003;31492;54.856;26.318;2022-12-29T02:49:30;22.8;21.3;14.8
45788;PMS7003;31492;54.856;26.318;2022-12-29T02:54:39;25.2;20.8;13.8
45788;PMS7003;31492;54.856;26.318;2022-12-29T02:59:29;21.4;20.4;13.6
45788;PMS7003;31492;54.856;26.318;2022-12-29T03:04:42;24.8;20.8;14
45788;PMS7003;31492;54.856;26.318;2022-12-29T03:09:50;25;21;13.5
45788;PMS7003;31492;54.856;26.318;2022-12-29T03:14:44;23.8;21.6;14
45788;PMS7003;31492;54.856;26.318;2022-12-29T03:19:51;23.2;21;14
45788;PMS7003;31492;54.856;26.318;2022-12-29T03:24:31;24.8;21.8;14.4
45788;PMS7003;31492;54.856;26.318;2022-12-29T03:29:30;24.3;22.3;14.5
45788;PMS7003;31492;54.856;26.318;2022-12-29T03:34:29;22.4;20.4;14.6
45788;PMS7003;31492;54.856;26.318;2022-12-29T03:39:41;27.4;24.4;15
45788;PMS7003;31492;54.856;26.318;2022-12-29T03:44:31;26.4;21;13.4
45788;PMS7003;31492;54.856;26.318;2022-12-29T03:49:39;23.8;20.8;14.5
45788;PMS7003;31492;54.856;26.318;2022-12-29T03:54:51;23.2;20.6;13.8
45788;PMS7003;31492;54.856;26.318;2022-12-29T03:59:35;23.8;21.8;15.2
45788;PMS7003;31492;54.856;26.318;2022-12-29T04:04:29;26;21.6;13.8
45788;PMS7003;31492;54.856;26.318;2022-12-29T04:09:49;27.5;24;15.8
45788;PMS7003;31492;54.856;26.318;2022-12-29T04:14:39;23.5;21;16
45788;PMS7003;31492;54.856;26.318;2022-12-29T04:19:29;28;23.3;16.3
45788;PMS7003;31492;54.856;26.318;2022-12-29T04:24:39;28;23.3;16.3
45788;PMS7003;31492;54.856;26.318;2022-12-29T04:29:49;27;23;16
45788;PMS7003;31492;54.856;26.318;2022-12-29T04:34:29;24;22;16
45788;PMS7003;31492;54.856;26.318;2022-12-29T05:39:29;24;22;16
45788;PMS7003;31492;54.856;26.318;2022-12-29T05:45:01;32.2;26.8;16.6
45788;PMS7003;31492;54.856;26.318;2022-12-29T05:49:29;33;28.6;18.2
45788;PMS7003;31492;54.856;26.318;2022-12-29T05:54:37;41.4;35;22.6
45788;PMS7003;31492;54.856;26.318;2022-12-29T05:59:49;36.6;30.4;18.8
45788;PMS7003;31492;54.856;26.318;2022-12-29T06:04:49;34;29;18.5
45788;PMS7003;31492;54.856;26.318;2022-12-29T06:09:39;34;30;18.2
45788;PMS7003;31492;54.856;26.318;2022-12-29T06:14:29;33.2;28.8;17.8
45788;PMS7003;31492;54.856;26.318;2022-12-29T06:19:29;36.5;32.5;18.8
45788;PMS7003;31492;54.856;26.318;2022-12-29T06:24:30;34.8;28.8;18.4
45788;PMS7003;31492;54.856;26.318;2022-12-29T06:29:29;35.3;30.8;17.8
45788;PMS7003;31492;54.856;26.318;2022-12-29T06:34:39;35.4;31.6;18.4
45788;PMS7003;31492;54.856;26.318;2022-12-29T06:39:39;39.6;32;20.2
45788;PMS7003;31492;54.856;26.318;2022-12-29T06:44:49;34.8;31.5;18.3
45788;PMS7003;31492;54.856;26.318;2022-12-29T06:49:39;40.8;32.8;18.8
45788;PMS7003;31492;54.856;26.318;2022-12-29T06:54:30;37;32.8;19.4
45788;PMS7003;31492;54.856;26.318;2022-12-29T06:59:39;35.4;29;17.8
45788;PMS7003;31492;54.856;26.318;2022-12-29T07:04:29;36.5;30.5;18.5
45788;PMS7003;31492;54.856;26.318;2022-12-29T07:09:49;35.8;30;17.8
45788;PMS7003;31492;54.856;26.318;2022-12-29T07:14:29;35.6;29;17.8
45788;PMS7003;31492;54.856;26.318;2022-12-29T07:19:29;40.6;32.2;19
45788;PMS7003;31492;54.856;26.318;2022-12-29T07:24:39;37.6;31.6;20
45788;PMS7003;31492;54.856;26.318;2022-12-29T07:29:39;45.5;39.3;23.8
45788;PMS7003;31492;54.856;26.318;2022-12-29T07:34:37;38.8;33.4;21.4
45788;PMS7003;31492;54.856;26.318;2022-12-29T07:39:39;39;31;18.4
45788;PMS7003;31492;54.856;26.318;2022-12-29T07:44:49;34;29.6;19
45788;PMS7003;31492;54.856;26.318;2022-12-29T07:49:39;36.3;31.5;19.3
45788;PMS7003;31492;54.856;26.318;2022-12-29T07:54:57;39.2;33.4;19.8
45788;PMS7003;31492;54.856;26.318;2022-12-29T07:59:29;36;30.2;18.6
45788;PMS7003;31492;54.856;26.318;2022-12-29T08:04:29;40.6;34.6;21.2
45788;PMS7003;31492;54.856;26.318;2022-12-29T08:09:29;37.5;33;19.8
45788;PMS7003;31492;54.856;26.318;2022-12-29T08:14:29;39.6;33.2;19.6
45788;PMS7003;31492;54.856;26.318;2022-12-29T08:19:49;43.2;34.6;20.8
45788;PMS7003;31492;54.856;26.318;2022-12-29T08:24:39;44.4;36.8;22.4
45788;PMS7003;31492;54.856;26.318;2022-12-29T08:29:39;44.5;35.3;20.5
45788;PMS7003;31492;54.856;26.318;2022-12-29T08:34:30;39.6;33.6;19.8
45788;PMS7003;31492;54.856;26.318;2022-12-29T08:39:38;36.2;31.8;20
45788;PMS7003;31492;54.856;26.318;2022-12-29T08:44:37;35.4;29;18.2
45788;PMS7003;31492;54.856;26.318;2022-12-29T08:49:39;33.5;31;19.3
45788;PMS7003;31492;54.856;26.318;2022-12-29T08:54:39;35.2;28.4;17.8
45788;PMS7003;31492;54.856;26.318;2022-12-29T09:34:40;28;22;15
45788;PMS7003;31492;54.856;26.318;2022-12-29T09:39:47;29.5;27.3;16
45788;PMS7003;31492;54.856;26.318;2022-12-29T09:44:31;29.6;24.4;16.2
45788;PMS7003;31492;54.856;26.318;2022-12-29T09:49:40;26.8;24;16.2
45788;PMS7003;31492;54.856;26.318;2022-12-29T09:54:41;28.3;24.3;16.8
45788;PMS7003;31492;54.856;26.318;2022-12-29T09:59:33;27.4;23;15.6
45788;PMS7003;31492;54.856;26.318;2022-12-29T10:04:47;23.2;20.2;14
45788;PMS7003;31492;54.856;26.318;2022-12-29T10:09:31;23.8;21;14
45788;PMS7003;31492;54.856;26.318;2022-12-29T10:15:00;19.5;18;12.3
45788;PMS7003;31492;54.856;26.318;2022-12-29T10:19:53;21.4;18.8;13.8
45788;PMS7003;31492;54.856;26.318;2022-12-29T10:24:50;22.4;18.2;13.2
45788;PMS7003;31492;54.856;26.318;2022-12-29T10:29:32;19.2;16.2;12.4
45788;PMS7003;31492;54.856;26.318;2022-12-29T10:34:50;19;16.8;11.3
45788;PMS7003;31492;54.856;26.318;2022-12-29T10:39:30;21.6;17;12.4
45788;PMS7003;31492;54.856;26.318;2022-12-29T10:44:40;16.8;14.6;10.8
45788;PMS7003;31492;54.856;26.318;2022-12-29T10:49:39;16.2;15;10.8
45788;PMS7003;31492;54.856;26.318;2022-12-29T10:54:31;16.4;14.8;11.2
45788;PMS7003;31492;54.856;26.318;2022-12-29T10:59:50;17;15;11.3
45788;PMS7003;31492;54.856;26.318;2022-12-29T11:05:00;18.6;16.2;11.4
45788;PMS7003;31492;54.856;26.318;2022-12-29T11:09:48;20.8;18.6;12.2
45788;PMS7003;31492;54.856;26.318;2022-12-29T11:14:30;18.4;16.8;12.2
45788;PMS7003;31492;54.856;26.318;2022-12-29T11:19:31;19;18.3;14.3
45788;PMS7003;31492;54.856;26.318;2022-12-29T11:24:30;17.3;15.8;11.3
45788;PMS7003;31492;54.856;26.318;2022-12-29T11:29:40;15.2;13.2;9.8
45788;PMS7003;31492;54.856;26.318;2022-12-29T11:34:50;13.4;12.2;8.8
45788;PMS7003;31492;54.856;26.318;2022-12-29T11:39:40;12.5;12.5;10
45788;PMS7003;31492;54.856;26.318;2022-12-29T11:44:41;13.4;12.4;9.4
45788;PMS7003;31492;54.856;26.318;2022-12-29T11:49:30;15.4;14.6;11
45788;PMS7003;31492;54.856;26.318;2022-12-29T11:54:40;14.4;13.2;10.4
45788;PMS7003;31492;54.856;26.318;2022-12-29T11:59:39;16.5;15;11.5
45788;PMS7003;31492;54.856;26.318;2022-12-29T12:04:38;15.6;13.4;11
45788;PMS7003;31492;54.856;26.318;2022-12-29T12:09:31;17.2;15.4;11.6
45788;PMS7003;31492;54.856;26.318;2022-12-29T12:14:43;16.2;14;10
45788;PMS7003;31492;54.856;26.318;2022-12-29T12:19:31;18.3;16;11.3
45788;PMS7003;31492;54.856;26.318;2022-12-29T12:24:35;17.6;16;11.2
45788;PMS7003;31492;54.856;26.318;2022-12-29T12:29:41;17;15.4;11.8
45788;PMS7003;31492;54.856;26.318;2022-12-29T12:34:30;22.4;19.6;12.6
45788;PMS7003;31492;54.856;26.318;2022-12-29T12:39:49;19.6;18.2;12.4
45788;PMS7003;31492;54.856;26.318;2022-12-29T12:44:32;21.5;18.8;13
45788;PMS7003;31492;54.856;26.318;2022-12-29T12:49:34;19.8;17.6;12.8
45788;PMS7003;31492;54.856;26.318;2022-12-29T12:54:53;18.4;18.2;13.4
45788;PMS7003;31492;54.856;26.318;2022-12-29T12:59:42;19.4;18;13.4
45788;PMS7003;31492;54.856;26.318;2022-12-29T13:04:38;22.3;19.8;13.8
45788;PMS7003;31492;54.856;26.318;2022-12-29T13:09:55;22.2;20.4;14
45788;PMS7003;31492;54.856;26.318;2022-12-29T13:14:52;26.2;21.4;14.2
45788;PMS7003;31492;54.856;26.318;2022-12-29T13:19:49;22.6;20.6;13
45788;PMS7003;31492;54.856;26.318;2022-12-29T13:24:52;25;22;13.5
45788;PMS7003;31492;54.856;26.318;2022-12-29T13:29:54;28;24;15.2
45788;PMS7003;31492;54.856;26.318;2022-12-29T13:34:32;25.2;21.8;14
45788;PMS7003;31492;54.856;26.318;2022-12-29T13:39:31;25.8;22.2;14.8
45788;PMS7003;31492;54.856;26.318;2022-12-29T13:44:31;26.3;23.5;15.3
45788;PMS7003;31492;54.856;26.318;2022-12-29T13:49:30;23.2;21.2;14.4
45788;PMS7003;31492;54.856;26.318;2022-12-29T13:54:40;24;21.4;14.2
45788;PMS7003;31492;54.856;26.318;2022-12-29T13:59:40;25.4;24.2;15.2
45788;PMS7003;31492;54.856;26.318;2022-12-29T14:04:58;24.8;22;14.5
45788;PMS7003;31492;54.856;26.318;2022-12-29T14:09:46;23.6;21.2;14.8
45788;PMS7003;31492;54.856;26.318;2022-12-29T14:14:30;24;21.2;14.4
45788;PMS7003;31492;54.856;26.318;2022-12-29T14:19:51;28.8;22.8;14.2
45788;PMS7003;31492;54.856;26.318;2022-12-29T14:24:41;24.2;21.4;15
45788;PMS7003;31492;54.856;26.318;2022-12-29T14:29:43;24.5;22.3;14.8
45788;PMS7003;31492;54.856;26.318;2022-12-29T14:34:37;24.2;21.2;15
45788;PMS7003;31492;54.856;26.318;2022-12-29T14:39:31;25.6;24;15
45788;PMS7003;31492;54.856;26.318;2022-12-29T14:44:30;26.8;22.8;15.2
45788;PMS7003;31492;54.856;26.318;2022-12-29T14:49:30;25.5;23.8;17
45788;PMS7003;31492;54.856;26.318;2022-12-29T14:54:42;27.4;23.2;15
45788;PMS7003;31492;54.856;26.318;2022-12-29T14:59:30;27;23.2;15.8
45788;PMS7003;31492;54.856;26.318;2022-12-29T15:04:30;27.2;24.4;16.8
45788;PMS7003;31492;54.856;26.318;2022-12-29T15:09:50;27.3;25.3;15.8
45788;PMS7003;31492;54.856;26.318;2022-12-29T15:14:47;28;26;17.6
45788;PMS7003;31492;54.856;26.318;2022-12-29T15:19:30;31.3;28.5;17.3
45788;PMS7003;31492;54.856;26.318;2022-12-29T15:24:49;25.8;22.8;16.2
45788;PMS7003;31492;54.856;26.318;2022-12-29T15:29:31;26.3;24.8;17
45788;PMS7003;31492;54.856;26.318;2022-12-29T15:34:40;28.6;25.6;16.4
45788;PMS7003;31492;54.856;26.318;2022-12-29T15:39:30;30;28.2;18.8
45788;PMS7003;31492;54.856;26.318;2022-12-29T15:44:31;29.8;26.8;17.4
45788;PMS7003;31492;54.856;26.318;2022-12-29T15:49:40;29.5;24;17.5
45788;PMS7003;31492;54.856;26.318;2022-12-29T15:54:40;28.4;25.6;16
45788;PMS7003;31492;54.856;26.318;2022-12-29T15:59:44;27;24.2;16.6
45788;PMS7003;31492;54.856;26.318;2022-12-29T16:04:30;28.6;25.6;16.2
45788;PMS7003;31492;54.856;26.318;2022-12-29T16:09:42;29.6;25.8;17.8
45788;PMS7003;31492;54.856;26.318;2022-12-29T16:14:40;31.3;27.8;19
45788;PMS7003;31492;54.856;26.318;2022-12-29T16:19:32;31.4;27;18.8
45788;PMS7003;31492;54.856;26.318;2022-12-29T16:24:30;30.8;26.8;17.4
45788;PMS7003;31492;54.856;26.318;2022-12-29T16:29:40;33.2;27.2;19.8
45788;PMS7003;31492;54.856;26.318;2022-12-29T16:34:30;32.3;28.3;19.3
45788;PMS7003;31492;54.856;26.318;2022-12-29T16:39:38;31.8;26.4;17.6
45788;PMS7003;31492;54.856;26.318;2022-12-29T16:44:30;32.6;28.8;18.8
45788;PMS7003;31492;54.856;26.318;2022-12-29T16:49:30;33;29.2;20.2
45788;PMS7003;31492;54.856;26.318;2022-12-29T16:54:40;29;28.3;19.3
45788;PMS7003;31492;54.856;26.318;2022-12-29T16:59:40;33.6;28.4;19.2
45788;PMS7003;31492;54.856;26.318;2022-12-29T17:04:40;33.6;29.8;19.8
45788;PMS7003;31492;54.856;26.318;2022-12-29T17:09:40;35.4;30.2;18.4
45788;PMS7003;31492;54.856;26.318;2022-12-29T17:14:51;30;26.5;18
45788;PMS7003;31492;54.856;26.318;2022-12-29T17:19:40;35.6;30;19.8
45788;PMS7003;31492;54.856;26.318;2022-12-29T17:24:28;33.8;31;20.8
45788;PMS7003;31492;54.856;26.318;2022-12-29T17:29:50;34.4;29.2;19
45788;PMS7003;31492;54.856;26.318;2022-12-29T17:34:48;30.3;26.8;17.8
45788;PMS7003;31492;54.856;26.318;2022-12-29T17:39:30;37.2;31.6;20.6
45788;PMS7003;31492;54.856;26.318;2022-12-29T17:45:02;37.6;33.8;23
45788;PMS7003;31492;54.856;26.318;2022-12-29T17:49:40;35.4;32;20.2
45788;PMS7003;31492;54.856;26.318;2022-12-29T17:54:38;34.4;31;20.8
45788;PMS7003;31492;54.856;26.318;2022-12-29T18:00:00;30.5;29;20.8
45788;PMS7003;31492;54.856;26.318;2022-12-29T18:04:30;36.8;32;20
45788;PMS7003;31492;54.856;26.318;2022-12-29T18:09:50;32.6;28.8;21
45788;PMS7003;31492;54.856;26.318;2022-12-29T18:14:30;30.8;28.2;18.8
45788;PMS7003;31492;54.856;26.318;2022-12-29T18:19:52;35.5;31.3;20.8
45788;PMS7003;31492;54.856;26.318;2022-12-29T18:24:50;36.6;32.8;21.6
45788;PMS7003;31492;54.856;26.318;2022-12-29T18:29:38;34.6;30.8;20
45788;PMS7003;31492;54.856;26.318;2022-12-29T18:34:52;33;29;18.6
45788;PMS7003;31492;54.856;26.318;2022-12-29T18:39:40;32;27.5;19.5
45788;PMS7003;31492;54.856;26.318;2022-12-29T18:44:30;32.6;28.8;18.8
45788;PMS7003;31492;54.856;26.318;2022-12-29T18:49:50;32.2;29.4;19.6
45788;PMS7003;31492;54.856;26.318;2022-12-29T18:54:52;34.4;31;21.4
45788;PMS7003;31492;54.856;26.318;2022-12-29T18:59:30;30.5;28;19.5
45788;PMS7003;31492;54.856;26.318;2022-12-29T19:04:30;31;28;18.8
45788;PMS7003;31492;54.856;26.318;2022-12-29T19:09:38;30.4;27.2;17.2
45788;PMS7003;31492;54.856;26.318;2022-12-29T19:14:48;32.2;29;19.6
45788;PMS7003;31492;54.856;26.318;2022-12-29T19:19:30;33.3;31.5;21
45788;PMS7003;31492;54.856;26.318;2022-12-29T19:24:50;32.4;27.6;19.4
45788;PMS7003;31492;54.856;26.318;2022-12-29T19:30:00;27.8;24.8;16.8
45788;PMS7003;31492;54.856;26.318;2022-12-29T19:34:30;31.6;28.8;19.4
45788;PMS7003;31492;54.856;26.318;2022-12-29T19:39:30;29.8;26.4;17.6
45788;PMS7003;31492;54.856;26.318;2022-12-29T19:44:50;28;26;16.5
45788;PMS7003;31492;54.856;26.318;2022-12-29T19:49:40;25.8;24.2;16.6
45788;PMS7003;31492;54.856;26.318;2022-12-29T19:54:30;25.8;22;16.2
45788;PMS7003;31492;54.856;26.318;2022-12-29T19:59:30;29.4;25;17.4
45788;PMS7003;31492;54.856;26.318;2022-12-29T20:04:40;27.8;23.5;15
45788;PMS7003;31492;54.856;26.318;2022-12-29T20:09:30;24.2;21;15.8
45788;PMS7003;31492;54.856;26.318;2022-12-29T20:14:40;26.4;23.6;15.2
45788;PMS7003;31492;54.856;26.318;2022-12-29T20:19:40;25;20.4;14.4
45788;PMS7003;31492;54.856;26.318;2022-12-29T20:24:30;22.8;19.3;13.3
45788;PMS7003;31492;54.856;26.318;2022-12-29T20:29:30;22.6;19.6;15.2
45788;PMS7003;31492;54.856;26.318;2022-12-29T20:34:30;22.2;20.6;14
45788;PMS7003;31492;54.856;26.318;2022-12-29T20:39:30;22;21.4;15.6
45788;PMS7003;31492;54.856;26.318;2022-12-29T20:44:50;24;21.8;14.3
45788;PMS7003;31492;54.856;26.318;2022-12-29T20:49:30;20;18.4;12.8
45788;PMS7003;31492;54.856;26.318;2022-12-29T20:54:30;19.6;17.4;12.8
45788;PMS7003;31492;54.856;26.318;2022-12-29T20:59:48;23.6;20.8;14.4
45788;PMS7003;31492;54.856;26.318;2022-12-29T21:04:40;18.8;18.3;13.8
45788;PMS7003;31492;54.856;26.318;2022-12-29T21:09:38;22.4;19.8;14.2
45788;PMS7003;31492;54.856;26.318;2022-12-29T21:14:30;20.6;19;14
45788;PMS7003;31492;54.856;26.318;2022-12-29T21:19:50;24;19.8;13.6
45788;PMS7003;31492;54.856;26.318;2022-12-29T21:24:40;23.2;20.4;14
45788;PMS7003;31492;54.856;26.318;2022-12-29T21:29:30;25.8;21;13.8
45788;PMS7003;31492;54.856;26.318;2022-12-29T21:34:52;22.4;20.4;15
45788;PMS7003;31492;54.856;26.318;2022-12-29T21:39:40;25;21.6;14.8
45788;PMS7003;31492;54.856;26.318;2022-12-29T21:45:12;23.5;22;15.3
45788;PMS7003;31492;54.856;26.318;2022-12-29T21:49:40;23.5;22;15.3
45788;PMS7003;31492;54.856;26.318;2022-12-29T21:54:40;23.2;20.2;14.2
45788;PMS7003;31492;54.856;26.318;2022-12-29T21:59:40;25.2;21.6;14.4
45788;PMS7003;31492;54.856;26.318;2022-12-29T22:04:38;22.6;20.4;13.8
45788;PMS7003;31492;54.856;26.318;2022-12-29T22:09:30;25.8;23;16.3
45788;PMS7003;31492;54.856;26.318;2022-12-29T22:14:30;23.4;21.2;15
45788;PMS7003;31492;54.856;26.318;2022-12-29T22:19:30;20.8;18.4;14
45788;PMS7003;31492;54.856;26.318;2022-12-29T22:24:30;22.8;20.2;14.2
45788;PMS7003;31492;54.856;26.318;2022-12-29T22:29:30;24.8;23;15.3
45788;PMS7003;31492;54.856;26.318;2022-12-29T22:34:40;26.4;22.6;16
45788;PMS7003;31492;54.856;26.318;2022-12-29T22:39:30;24.6;20.8;15.2
45788;PMS7003;31492;54.856;26.318;2022-12-29T22:44:30;23.6;20;14.4
45788;PMS7003;31492;54.856;26.318;2022-12-29T22:50:12;25.7;23;15.7
